sensor_id;sensor_type;location;lat;lon;timestamp;pressure;altitude;pressure_sealevel;temperature
24639;BMP180;1641;51.306;12.384;2022-08-19T00:02:22;99604.00;;;22.00
24639;BMP180;1641;51.306;12.384;2022-08-19T00:04:50;99618.00;;;22.20
24639;BMP180;1641;51.306;12.384;2022-08-19T00:07:18;99619.00;;;22.10
24639;BMP180;1641;51.306;12.384;2022-08-19T00:09:50;99626.00;;;21.90
24639;BMP180;1641;51.306;12.384;2022-08-19T00:12:15;99639.00;;;22.10
24639;BMP180;1641;51.306;12.384;2022-08-19T00:14:40;99636.00;;;22.10
24639;BMP180;1641;51.306;12.384;2022-08-19T00:17:07;99618.00;;;21.90
24639;BMP180;1641;51.306;12.384;2022-08-19T00:19:36;99628.00;;;21.80
24639;BMP180;1641;51.306;12.384;2022-08-19T00:22:02;99618.00;;;21.80
24639;BMP180;1641;51.306;12.384;2022-08-19T00:24:28;99612.00;;;21.70
24639;BMP180;1641;51.306;12.384;2022-08-19T00:26:55;99591.00;;;21.70
24639;BMP180;1641;51.306;12.384;2022-08-19T00:29:22;99592.00;;;22.00
24639;BMP180;1641;51.306;12.384;2022-08-19T00:31:48;99585.00;;;21.90
24639;BMP180;1641;51.306;12.384;2022-08-19T00:34:15;99573.00;;;21.90
24639;BMP180;1641;51.306;12.384;2022-08-19T00:36:41;99578.00;;;22.10
24639;BMP180;1641;51.306;12.384;2022-08-19T00:39:07;99577.00;;;22.10
24639;BMP180;1641;51.306;12.384;2022-08-19T00:41:32;99581.00;;;21.90
24639;BMP180;1641;51.306;12.384;2022-08-19T00:44:10;99577.00;;;21.80
24639;BMP180;1641;51.306;12.384;2022-08-19T00:46:38;99568.00;;;21.80
24639;BMP180;1641;51.306;12.384;2022-08-19T00:49:12;99570.00;;;21.80
24639;BMP180;1641;51.306;12.384;2022-08-19T00:51:40;99572.00;;;22.00
24639;BMP180;1641;51.306;12.384;2022-08-19T00:54:06;99585.00;;;22.00
24639;BMP180;1641;51.306;12.384;2022-08-19T00:56:32;99591.00;;;22.30
24639;BMP180;1641;51.306;12.384;2022-08-19T00:58:58;99591.00;;;22.20
24639;BMP180;1641;51.306;12.384;2022-08-19T01:01:24;99585.00;;;21.90
24639;BMP180;1641;51.306;12.384;2022-08-19T01:03:50;99574.00;;;21.90
24639;BMP180;1641;51.306;12.384;2022-08-19T01:06:15;99563.00;;;21.80
24639;BMP180;1641;51.306;12.384;2022-08-19T01:08:41;99563.00;;;21.70
24639;BMP180;1641;51.306;12.384;2022-08-19T01:11:06;99566.00;;;22.00
24639;BMP180;1641;51.306;12.384;2022-08-19T01:13:33;99548.00;;;21.90
24639;BMP180;1641;51.306;12.384;2022-08-19T01:16:02;99545.00;;;21.70
24639;BMP180;1641;51.306;12.384;2022-08-19T01:18:29;99533.00;;;21.70
24639;BMP180;1641;51.306;12.384;2022-08-19T01:20:58;99543.00;;;21.80
24639;BMP180;1641;51.306;12.384;2022-08-19T01:23:26;99552.00;;;21.80
24639;BMP180;1641;51.306;12.384;2022-08-19T01:26:09;99553.00;;;22.00
24639;BMP180;1641;51.306;12.384;2022-08-19T01:28:36;99551.00;;;21.80
24639;BMP180;1641;51.306;12.384;2022-08-19T01:31:02;99529.00;;;21.60
24639;BMP180;1641;51.306;12.384;2022-08-19T01:33:28;99536.00;;;21.70
24639;BMP180;1641;51.306;12.384;2022-08-19T01:36:14;99528.00;;;21.70
24639;BMP180;1641;51.306;12.384;2022-08-19T01:38:42;99500.00;;;21.60
24639;BMP180;1641;51.306;12.384;2022-08-19T01:41:09;99517.00;;;21.50
24639;BMP180;1641;51.306;12.384;2022-08-19T01:43:34;99515.00;;;21.50
24639;BMP180;1641;51.306;12.384;2022-08-19T01:46:00;99506.00;;;21.60
24639;BMP180;1641;51.306;12.384;2022-08-19T01:48:26;99514.00;;;21.70
24639;BMP180;1641;51.306;12.384;2022-08-19T01:50:54;99519.00;;;21.90
24639;BMP180;1641;51.306;12.384;2022-08-19T01:53:19;99519.00;;;21.90
24639;BMP180;1641;51.306;12.384;2022-08-19T01:55:47;99514.00;;;21.80
24639;BMP180;1641;51.306;12.384;2022-08-19T01:58:21;99503.00;;;21.80
24639;BMP180;1641;51.306;12.384;2022-08-19T02:00:48;99492.00;;;21.60
24639;BMP180;1641;51.306;12.384;2022-08-19T02:03:16;99489.00;;;21.60
24639;BMP180;1641;51.306;12.384;2022-08-19T02:05:43;99475.00;;;21.40
24639;BMP180;1641;51.306;12.384;2022-08-19T02:08:09;99467.00;;;21.40
24639;BMP180;1641;51.306;12.384;2022-08-19T02:10:38;99465.00;;;21.20
24639;BMP180;1641;51.306;12.384;2022-08-19T02:13:04;99473.00;;;21.40
24639;BMP180;1641;51.306;12.384;2022-08-19T02:15:29;99475.00;;;21.50
24639;BMP180;1641;51.306;12.384;2022-08-19T02:17:54;99473.00;;;21.40
24639;BMP180;1641;51.306;12.384;2022-08-19T02:20:19;99473.00;;;21.40
24639;BMP180;1641;51.306;12.384;2022-08-19T02:22:48;99481.00;;;21.60
24639;BMP180;1641;51.306;12.384;2022-08-19T02:25:14;99487.00;;;21.50
24639;BMP180;1641;51.306;12.384;2022-08-19T02:27:42;99492.00;;;21.70
24639;BMP180;1641;51.306;12.384;2022-08-19T02:30:12;99499.00;;;21.70
24639;BMP180;1641;51.306;12.384;2022-08-19T02:32:37;99493.00;;;21.80
24639;BMP180;1641;51.306;12.384;2022-08-19T02:35:09;99494.00;;;22.00
24639;BMP180;1641;51.306;12.384;2022-08-19T02:37:35;99490.00;;;22.00
24639;BMP180;1641;51.306;12.384;2022-08-19T02:40:19;99482.00;;;22.00
24639;BMP180;1641;51.306;12.384;2022-08-19T02:42:44;99474.00;;;21.80
24639;BMP180;1641;51.306;12.384;2022-08-19T02:45:11;99465.00;;;21.80
24639;BMP180;1641;51.306;12.384;2022-08-19T02:47:36;99456.00;;;22.10
24639;BMP180;1641;51.306;12.384;2022-08-19T02:50:03;99453.00;;;22.20
24639;BMP180;1641;51.306;12.384;2022-08-19T02:52:29;99461.00;;;22.10
24639;BMP180;1641;51.306;12.384;2022-08-19T02:54:54;99468.00;;;21.80
24639;BMP180;1641;51.306;12.384;2022-08-19T02:57:23;99478.00;;;21.80
24639;BMP180;1641;51.306;12.384;2022-08-19T02:59:48;99480.00;;;22.00
24639;BMP180;1641;51.306;12.384;2022-08-19T03:02:13;99496.00;;;22.30
24639;BMP180;1641;51.306;12.384;2022-08-19T03:04:38;99497.00;;;22.00
24639;BMP180;1641;51.306;12.384;2022-08-19T03:07:03;99514.00;;;21.90
24639;BMP180;1641;51.306;12.384;2022-08-19T03:09:38;99535.00;;;21.90
24639;BMP180;1641;51.306;12.384;2022-08-19T03:12:04;99541.00;;;22.10
24639;BMP180;1641;51.306;12.384;2022-08-19T03:14:34;99550.00;;;22.10
24639;BMP180;1641;51.306;12.384;2022-08-19T03:16:59;99555.00;;;22.60
24639;BMP180;1641;51.306;12.384;2022-08-19T03:19:25;99566.00;;;22.70
24639;BMP180;1641;51.306;12.384;2022-08-19T03:21:51;99566.00;;;22.40
24639;BMP180;1641;51.306;12.384;2022-08-19T03:24:16;99570.00;;;22.50
24639;BMP180;1641;51.306;12.384;2022-08-19T03:26:47;99563.00;;;22.60
24639;BMP180;1641;51.306;12.384;2022-08-19T03:29:13;99569.00;;;22.30
24639;BMP180;1641;51.306;12.384;2022-08-19T03:31:39;99577.00;;;22.00
24639;BMP180;1641;51.306;12.384;2022-08-19T03:34:14;99588.00;;;22.00
24639;BMP180;1641;51.306;12.384;2022-08-19T03:36:39;99593.00;;;22.20
24639;BMP180;1641;51.306;12.384;2022-08-19T03:39:05;99602.00;;;22.10
24639;BMP180;1641;51.306;12.384;2022-08-19T03:41:39;99596.00;;;22.10
24639;BMP180;1641;51.306;12.384;2022-08-19T03:44:05;99602.00;;;22.10
24639;BMP180;1641;51.306;12.384;2022-08-19T03:46:33;99601.00;;;22.10
24639;BMP180;1641;51.306;12.384;2022-08-19T03:49:00;99589.00;;;22.10
24639;BMP180;1641;51.306;12.384;2022-08-19T03:51:31;99563.00;;;22.10
24639;BMP180;1641;51.306;12.384;2022-08-19T03:53:59;99584.00;;;22.20
24639;BMP180;1641;51.306;12.384;2022-08-19T03:56:26;99586.00;;;21.90
24639;BMP180;1641;51.306;12.384;2022-08-19T03:59:02;99585.00;;;22.00
24639;BMP180;1641;51.306;12.384;2022-08-19T04:01:29;99585.00;;;21.80
24639;BMP180;1641;51.306;12.384;2022-08-19T04:03:58;99584.00;;;21.90
24639;BMP180;1641;51.306;12.384;2022-08-19T04:06:27;99599.00;;;22.10
24639;BMP180;1641;51.306;12.384;2022-08-19T04:08:54;99605.00;;;22.20
24639;BMP180;1641;51.306;12.384;2022-08-19T04:11:26;99597.00;;;22.20
24639;BMP180;1641;51.306;12.384;2022-08-19T04:13:53;99590.00;;;22.00
24639;BMP180;1641;51.306;12.384;2022-08-19T04:16:20;99605.00;;;21.80
24639;BMP180;1641;51.306;12.384;2022-08-19T04:18:47;99613.00;;;21.70
24639;BMP180;1641;51.306;12.384;2022-08-19T04:21:18;99617.00;;;21.70
24639;BMP180;1641;51.306;12.384;2022-08-19T04:23:44;99612.00;;;21.90
24639;BMP180;1641;51.306;12.384;2022-08-19T04:26:25;99611.00;;;21.80
24639;BMP180;1641;51.306;12.384;2022-08-19T04:28:51;99595.00;;;21.90
24639;BMP180;1641;51.306;12.384;2022-08-19T04:31:25;99593.00;;;21.70
24639;BMP180;1641;51.306;12.384;2022-08-19T04:33:55;99579.00;;;21.70
24639;BMP180;1641;51.306;12.384;2022-08-19T04:36:25;99561.00;;;21.70
24639;BMP180;1641;51.306;12.384;2022-08-19T04:38:54;99569.00;;;21.70
24639;BMP180;1641;51.306;12.384;2022-08-19T04:41:19;99561.00;;;21.60
24639;BMP180;1641;51.306;12.384;2022-08-19T04:44:04;99565.00;;;21.80
24639;BMP180;1641;51.306;12.384;2022-08-19T04:46:29;99571.00;;;21.90
24639;BMP180;1641;51.306;12.384;2022-08-19T04:48:58;99581.00;;;21.80
24639;BMP180;1641;51.306;12.384;2022-08-19T04:51:24;99582.00;;;21.90
24639;BMP180;1641;51.306;12.384;2022-08-19T04:53:49;99581.00;;;21.90
24639;BMP180;1641;51.306;12.384;2022-08-19T04:56:16;99583.00;;;22.20
24639;BMP180;1641;51.306;12.384;2022-08-19T04:58:43;99589.00;;;22.10
24639;BMP180;1641;51.306;12.384;2022-08-19T05:01:12;99577.00;;;22.30
24639;BMP180;1641;51.306;12.384;2022-08-19T05:03:37;99581.00;;;22.40
24639;BMP180;1641;51.306;12.384;2022-08-19T05:06:06;99582.00;;;22.40
24639;BMP180;1641;51.306;12.384;2022-08-19T05:08:33;99585.00;;;21.90
24639;BMP180;1641;51.306;12.384;2022-08-19T05:10:59;99577.00;;;22.00
24639;BMP180;1641;51.306;12.384;2022-08-19T05:13:25;99581.00;;;22.00
24639;BMP180;1641;51.306;12.384;2022-08-19T05:15:56;99579.00;;;22.00
24639;BMP180;1641;51.306;12.384;2022-08-19T05:18:22;99587.00;;;21.90
24639;BMP180;1641;51.306;12.384;2022-08-19T05:21:11;99588.00;;;21.80
24639;BMP180;1641;51.306;12.384;2022-08-19T05:23:56;99591.00;;;21.80
24639;BMP180;1641;51.306;12.384;2022-08-19T05:26:22;99596.00;;;21.90
24639;BMP180;1641;51.306;12.384;2022-08-19T05:28:47;99588.00;;;22.10
24639;BMP180;1641;51.306;12.384;2022-08-19T05:31:12;99593.00;;;22.00
24639;BMP180;1641;51.306;12.384;2022-08-19T05:33:38;99602.00;;;21.80
24639;BMP180;1641;51.306;12.384;2022-08-19T05:36:05;99614.00;;;21.90
24639;BMP180;1641;51.306;12.384;2022-08-19T05:38:33;99616.00;;;21.80
24639;BMP180;1641;51.306;12.384;2022-08-19T05:40:58;99613.00;;;22.00
24639;BMP180;1641;51.306;12.384;2022-08-19T05:43:23;99623.00;;;21.90
24639;BMP180;1641;51.306;12.384;2022-08-19T05:45:48;99627.00;;;21.90
24639;BMP180;1641;51.306;12.384;2022-08-19T05:48:15;99627.00;;;22.00
24639;BMP180;1641;51.306;12.384;2022-08-19T05:50:42;99634.00;;;22.00
24639;BMP180;1641;51.306;12.384;2022-08-19T05:53:10;99634.00;;;22.10
24639;BMP180;1641;51.306;12.384;2022-08-19T05:55:35;99640.00;;;22.10
24639;BMP180;1641;51.306;12.384;2022-08-19T05:58:03;99640.00;;;21.90
24639;BMP180;1641;51.306;12.384;2022-08-19T06:00:28;99638.00;;;21.90
24639;BMP180;1641;51.306;12.384;2022-08-19T06:02:55;99636.00;;;22.00
24639;BMP180;1641;51.306;12.384;2022-08-19T06:05:21;99636.00;;;21.90
24639;BMP180;1641;51.306;12.384;2022-08-19T06:07:46;99644.00;;;21.90
24639;BMP180;1641;51.306;12.384;2022-08-19T06:10:11;99636.00;;;22.00
24639;BMP180;1641;51.306;12.384;2022-08-19T06:12:37;99632.00;;;21.90
24639;BMP180;1641;51.306;12.384;2022-08-19T06:15:06;99634.00;;;22.00
24639;BMP180;1641;51.306;12.384;2022-08-19T06:17:31;99628.00;;;21.90
24639;BMP180;1641;51.306;12.384;2022-08-19T06:19:59;99611.00;;;21.70
24639;BMP180;1641;51.306;12.384;2022-08-19T06:22:24;99618.00;;;21.80
24639;BMP180;1641;51.306;12.384;2022-08-19T06:24:50;99618.00;;;21.70
24639;BMP180;1641;51.306;12.384;2022-08-19T06:27:18;99632.00;;;21.80
24639;BMP180;1641;51.306;12.384;2022-08-19T06:29:43;99641.00;;;21.70
24639;BMP180;1641;51.306;12.384;2022-08-19T06:32:08;99652.00;;;21.80
24639;BMP180;1641;51.306;12.384;2022-08-19T06:34:34;99658.00;;;22.00
24639;BMP180;1641;51.306;12.384;2022-08-19T06:37:00;99668.00;;;22.10
24639;BMP180;1641;51.306;12.384;2022-08-19T06:39:31;99688.00;;;22.30
24639;BMP180;1641;51.306;12.384;2022-08-19T06:41:59;99699.00;;;22.00
24639;BMP180;1641;51.306;12.384;2022-08-19T06:44:28;99710.00;;;22.10
24639;BMP180;1641;51.306;12.384;2022-08-19T06:46:54;99717.00;;;22.20
24639;BMP180;1641;51.306;12.384;2022-08-19T06:49:21;99725.00;;;22.30
24639;BMP180;1641;51.306;12.384;2022-08-19T06:51:48;99729.00;;;22.20
24639;BMP180;1641;51.306;12.384;2022-08-19T06:54:14;99733.00;;;22.20
24639;BMP180;1641;51.306;12.384;2022-08-19T06:56:40;99730.00;;;21.90
24639;BMP180;1641;51.306;12.384;2022-08-19T06:59:08;99737.00;;;22.00
24639;BMP180;1641;51.306;12.384;2022-08-19T07:01:39;99737.00;;;21.90
24639;BMP180;1641;51.306;12.384;2022-08-19T07:04:06;99749.00;;;21.70
24639;BMP180;1641;51.306;12.384;2022-08-19T07:06:34;99750.00;;;22.00
24639;BMP180;1641;51.306;12.384;2022-08-19T07:08:59;99755.00;;;21.80
24639;BMP180;1641;51.306;12.384;2022-08-19T07:11:25;99759.00;;;21.80
24639;BMP180;1641;51.306;12.384;2022-08-19T07:13:51;99762.00;;;21.70
24639;BMP180;1641;51.306;12.384;2022-08-19T07:16:18;99763.00;;;22.00
24639;BMP180;1641;51.306;12.384;2022-08-19T07:18:49;99764.00;;;21.60
24639;BMP180;1641;51.306;12.384;2022-08-19T07:21:26;99767.00;;;21.90
24639;BMP180;1641;51.306;12.384;2022-08-19T07:23:55;99774.00;;;21.70
24639;BMP180;1641;51.306;12.384;2022-08-19T07:26:30;99783.00;;;21.60
24639;BMP180;1641;51.306;12.384;2022-08-19T07:28:57;99775.00;;;21.70
24639;BMP180;1641;51.306;12.384;2022-08-19T07:31:27;99772.00;;;21.70
24639;BMP180;1641;51.306;12.384;2022-08-19T07:33:55;99768.00;;;21.90
24639;BMP180;1641;51.306;12.384;2022-08-19T07:36:24;99764.00;;;22.10
24639;BMP180;1641;51.306;12.384;2022-08-19T07:38:51;99766.00;;;21.90
24639;BMP180;1641;51.306;12.384;2022-08-19T07:41:21;99759.00;;;22.10
24639;BMP180;1641;51.306;12.384;2022-08-19T07:43:47;99759.00;;;22.00
24639;BMP180;1641;51.306;12.384;2022-08-19T07:46:14;99753.00;;;21.70
24639;BMP180;1641;51.306;12.384;2022-08-19T07:48:41;99757.00;;;21.90
24639;BMP180;1641;51.306;12.384;2022-08-19T07:51:09;99758.00;;;22.00
24639;BMP180;1641;51.306;12.384;2022-08-19T07:53:36;99769.00;;;22.10
24639;BMP180;1641;51.306;12.384;2022-08-19T07:56:02;99767.00;;;22.00
24639;BMP180;1641;51.306;12.384;2022-08-19T07:58:35;99763.00;;;22.00
24639;BMP180;1641;51.306;12.384;2022-08-19T08:01:04;99767.00;;;22.00
24639;BMP180;1641;51.306;12.384;2022-08-19T08:03:30;99762.00;;;22.10
24639;BMP180;1641;51.306;12.384;2022-08-19T08:06:15;99762.00;;;22.10
24639;BMP180;1641;51.306;12.384;2022-08-19T08:08:58;99783.00;;;22.20
24639;BMP180;1641;51.306;12.384;2022-08-19T08:11:40;99767.00;;;22.20
24639;BMP180;1641;51.306;12.384;2022-08-19T08:14:08;99770.00;;;21.80
24639;BMP180;1641;51.306;12.384;2022-08-19T08:16:36;99776.00;;;21.90
24639;BMP180;1641;51.306;12.384;2022-08-19T08:19:04;99778.00;;;22.20
24639;BMP180;1641;51.306;12.384;2022-08-19T08:21:30;99782.00;;;22.30
24639;BMP180;1641;51.306;12.384;2022-08-19T08:23:55;99786.00;;;22.70
24639;BMP180;1641;51.306;12.384;2022-08-19T08:26:20;99783.00;;;22.40
24639;BMP180;1641;51.306;12.384;2022-08-19T08:28:45;99782.00;;;22.30
24639;BMP180;1641;51.306;12.384;2022-08-19T08:31:13;99784.00;;;22.60
24639;BMP180;1641;51.306;12.384;2022-08-19T08:33:39;99783.00;;;22.10
24639;BMP180;1641;51.306;12.384;2022-08-19T08:36:07;99784.00;;;22.10
24639;BMP180;1641;51.306;12.384;2022-08-19T08:38:33;99786.00;;;22.30
24639;BMP180;1641;51.306;12.384;2022-08-19T08:41:34;99796.00;;;22.20
24639;BMP180;1641;51.306;12.384;2022-08-19T08:44:02;99790.00;;;21.90
24639;BMP180;1641;51.306;12.384;2022-08-19T08:46:39;99792.00;;;21.90
24639;BMP180;1641;51.306;12.384;2022-08-19T08:51:50;99809.00;;;21.80
24639;BMP180;1641;51.306;12.384;2022-08-19T08:54:19;99801.00;;;21.80
24639;BMP180;1641;51.306;12.384;2022-08-19T08:56:45;99804.00;;;22.20
24639;BMP180;1641;51.306;12.384;2022-08-19T08:59:23;99819.00;;;22.30
24639;BMP180;1641;51.306;12.384;2022-08-19T09:01:50;99806.00;;;22.30
24639;BMP180;1641;51.306;12.384;2022-08-19T09:04:16;99817.00;;;22.20
24639;BMP180;1641;51.306;12.384;2022-08-19T09:07:07;99800.00;;;22.10
24639;BMP180;1641;51.306;12.384;2022-08-19T09:09:40;99787.00;;;22.00
24639;BMP180;1641;51.306;12.384;2022-08-19T09:15:00;99790.00;;;22.00
24639;BMP180;1641;51.306;12.384;2022-08-19T09:17:27;99792.00;;;21.70
24639;BMP180;1641;51.306;12.384;2022-08-19T09:20:06;99774.00;;;22.10
24639;BMP180;1641;51.306;12.384;2022-08-19T09:22:33;99801.00;;;22.20
24639;BMP180;1641;51.306;12.384;2022-08-19T09:24:58;99806.00;;;22.20
24639;BMP180;1641;51.306;12.384;2022-08-19T09:27:25;99794.00;;;22.20
24639;BMP180;1641;51.306;12.384;2022-08-19T09:29:51;99801.00;;;22.10
24639;BMP180;1641;51.306;12.384;2022-08-19T09:32:18;99803.00;;;22.40
24639;BMP180;1641;51.306;12.384;2022-08-19T09:34:44;99807.00;;;22.60
24639;BMP180;1641;51.306;12.384;2022-08-19T09:37:10;99802.00;;;22.70
24639;BMP180;1641;51.306;12.384;2022-08-19T09:39:35;99807.00;;;22.30
24639;BMP180;1641;51.306;12.384;2022-08-19T09:42:01;99788.00;;;22.50
24639;BMP180;1641;51.306;12.384;2022-08-19T09:44:29;99801.00;;;22.60
24639;BMP180;1641;51.306;12.384;2022-08-19T09:46:54;99791.00;;;22.70
24639;BMP180;1641;51.306;12.384;2022-08-19T09:49:21;99778.00;;;22.40
24639;BMP180;1641;51.306;12.384;2022-08-19T09:51:50;99809.00;;;22.30
24639;BMP180;1641;51.306;12.384;2022-08-19T09:54:15;99817.00;;;22.50
24639;BMP180;1641;51.306;12.384;2022-08-19T09:56:40;99807.00;;;22.40
24639;BMP180;1641;51.306;12.384;2022-08-19T09:59:06;99799.00;;;22.50
24639;BMP180;1641;51.306;12.384;2022-08-19T10:01:32;99795.00;;;22.50
24639;BMP180;1641;51.306;12.384;2022-08-19T10:03:59;99787.00;;;22.80
24639;BMP180;1641;51.306;12.384;2022-08-19T10:06:26;99787.00;;;22.60
24639;BMP180;1641;51.306;12.384;2022-08-19T10:08:55;99784.00;;;22.70
24639;BMP180;1641;51.306;12.384;2022-08-19T10:11:20;99771.00;;;22.60
24639;BMP180;1641;51.306;12.384;2022-08-19T10:13:46;99786.00;;;23.20
24639;BMP180;1641;51.306;12.384;2022-08-19T10:16:14;99774.00;;;22.90
24639;BMP180;1641;51.306;12.384;2022-08-19T10:18:41;99772.00;;;23.40
24639;BMP180;1641;51.306;12.384;2022-08-19T10:21:11;99783.00;;;23.40
24639;BMP180;1641;51.306;12.384;2022-08-19T10:23:38;99792.00;;;23.00
24639;BMP180;1641;51.306;12.384;2022-08-19T10:26:05;99793.00;;;23.20
24639;BMP180;1641;51.306;12.384;2022-08-19T10:28:35;99782.00;;;23.30
24639;BMP180;1641;51.306;12.384;2022-08-19T10:31:07;99800.00;;;23.70
24639;BMP180;1641;51.306;12.384;2022-08-19T10:33:33;99796.00;;;23.50
24639;BMP180;1641;51.306;12.384;2022-08-19T10:36:05;99778.00;;;23.50
24639;BMP180;1641;51.306;12.384;2022-08-19T10:38:31;99792.00;;;23.10
24639;BMP180;1641;51.306;12.384;2022-08-19T10:40:56;99803.00;;;22.90
24639;BMP180;1641;51.306;12.384;2022-08-19T10:43:22;99808.00;;;22.70
24639;BMP180;1641;51.306;12.384;2022-08-19T10:45:56;99806.00;;;22.70
24639;BMP180;1641;51.306;12.384;2022-08-19T10:48:23;99811.00;;;22.60
24639;BMP180;1641;51.306;12.384;2022-08-19T10:50:48;99813.00;;;22.50
24639;BMP180;1641;51.306;12.384;2022-08-19T10:53:32;99812.00;;;23.10
24639;BMP180;1641;51.306;12.384;2022-08-19T10:55:57;99817.00;;;23.30
24639;BMP180;1641;51.306;12.384;2022-08-19T10:58:41;99802.00;;;23.00
24639;BMP180;1641;51.306;12.384;2022-08-19T11:01:06;99807.00;;;23.00
24639;BMP180;1641;51.306;12.384;2022-08-19T11:03:31;99809.00;;;23.30
24639;BMP180;1641;51.306;12.384;2022-08-19T11:06:03;99802.00;;;23.10
24639;BMP180;1641;51.306;12.384;2022-08-19T11:08:29;99810.00;;;23.30
24639;BMP180;1641;51.306;12.384;2022-08-19T11:10:59;99812.00;;;22.90
24639;BMP180;1641;51.306;12.384;2022-08-19T11:13:26;99809.00;;;22.90
24639;BMP180;1641;51.306;12.384;2022-08-19T11:18:23;99825.00;;;23.10
24639;BMP180;1641;51.306;12.384;2022-08-19T11:20:49;99830.00;;;22.80
24639;BMP180;1641;51.306;12.384;2022-08-19T11:23:14;99817.00;;;22.70
24639;BMP180;1641;51.306;12.384;2022-08-19T11:25:39;99818.00;;;22.80
24639;BMP180;1641;51.306;12.384;2022-08-19T11:28:04;99826.00;;;22.30
24639;BMP180;1641;51.306;12.384;2022-08-19T11:30:30;99832.00;;;22.30
24639;BMP180;1641;51.306;12.384;2022-08-19T11:32:55;99842.00;;;22.60
24639;BMP180;1641;51.306;12.384;2022-08-19T11:35:20;99849.00;;;23.00
24639;BMP180;1641;51.306;12.384;2022-08-19T11:37:48;99850.00;;;22.80
24639;BMP180;1641;51.306;12.384;2022-08-19T11:40:13;99843.00;;;23.00
24639;BMP180;1641;51.306;12.384;2022-08-19T11:42:38;99853.00;;;22.90
24639;BMP180;1641;51.306;12.384;2022-08-19T11:45:23;99851.00;;;23.20
24639;BMP180;1641;51.306;12.384;2022-08-19T11:47:49;99859.00;;;23.30
24639;BMP180;1641;51.306;12.384;2022-08-19T11:50:15;99860.00;;;23.40
24639;BMP180;1641;51.306;12.384;2022-08-19T11:52:41;99848.00;;;23.80
24639;BMP180;1641;51.306;12.384;2022-08-19T11:55:07;99846.00;;;23.80
24639;BMP180;1641;51.306;12.384;2022-08-19T11:57:32;99849.00;;;23.90
24639;BMP180;1641;51.306;12.384;2022-08-19T11:59:57;99846.00;;;23.50
24639;BMP180;1641;51.306;12.384;2022-08-19T12:02:22;99832.00;;;23.60
24639;BMP180;1641;51.306;12.384;2022-08-19T12:04:48;99835.00;;;24.10
24639;BMP180;1641;51.306;12.384;2022-08-19T12:07:14;99832.00;;;24.10
24639;BMP180;1641;51.306;12.384;2022-08-19T12:09:39;99827.00;;;24.50
24639;BMP180;1641;51.306;12.384;2022-08-19T12:12:05;99824.00;;;24.40
24639;BMP180;1641;51.306;12.384;2022-08-19T12:14:30;99807.00;;;24.20
24639;BMP180;1641;51.306;12.384;2022-08-19T12:16:57;99822.00;;;24.50
24639;BMP180;1641;51.306;12.384;2022-08-19T12:19:22;99813.00;;;24.20
24639;BMP180;1641;51.306;12.384;2022-08-19T12:21:47;99808.00;;;24.50
24639;BMP180;1641;51.306;12.384;2022-08-19T12:24:13;99808.00;;;24.20
24639;BMP180;1641;51.306;12.384;2022-08-19T12:26:39;99801.00;;;23.90
24639;BMP180;1641;51.306;12.384;2022-08-19T12:29:04;99800.00;;;24.50
24639;BMP180;1641;51.306;12.384;2022-08-19T12:31:29;99791.00;;;24.50
24639;BMP180;1641;51.306;12.384;2022-08-19T12:33:56;99782.00;;;24.60
24639;BMP180;1641;51.306;12.384;2022-08-19T12:36:21;99795.00;;;24.40
24639;BMP180;1641;51.306;12.384;2022-08-19T12:38:48;99787.00;;;24.10
24639;BMP180;1641;51.306;12.384;2022-08-19T12:41:16;99792.00;;;24.30
24639;BMP180;1641;51.306;12.384;2022-08-19T12:43:43;99790.00;;;24.60
24639;BMP180;1641;51.306;12.384;2022-08-19T12:46:09;99797.00;;;24.80
24639;BMP180;1641;51.306;12.384;2022-08-19T12:48:34;99797.00;;;25.30
24639;BMP180;1641;51.306;12.384;2022-08-19T12:51:00;99802.00;;;25.40
24639;BMP180;1641;51.306;12.384;2022-08-19T12:53:30;99820.00;;;25.80
24639;BMP180;1641;51.306;12.384;2022-08-19T12:55:56;99788.00;;;25.10
24639;BMP180;1641;51.306;12.384;2022-08-19T12:58:22;99806.00;;;25.10
24639;BMP180;1641;51.306;12.384;2022-08-19T13:00:48;99808.00;;;25.70
24639;BMP180;1641;51.306;12.384;2022-08-19T13:03:14;99809.00;;;25.10
24639;BMP180;1641;51.306;12.384;2022-08-19T13:05:39;99806.00;;;24.80
24639;BMP180;1641;51.306;12.384;2022-08-19T13:08:04;99824.00;;;24.90
24639;BMP180;1641;51.306;12.384;2022-08-19T13:10:32;99819.00;;;25.20
24639;BMP180;1641;51.306;12.384;2022-08-19T13:13:00;99811.00;;;25.80
24639;BMP180;1641;51.306;12.384;2022-08-19T13:15:26;99813.00;;;25.40
24639;BMP180;1641;51.306;12.384;2022-08-19T13:17:54;99823.00;;;25.20
24639;BMP180;1641;51.306;12.384;2022-08-19T13:20:21;99812.00;;;25.30
24639;BMP180;1641;51.306;12.384;2022-08-19T13:22:47;99809.00;;;25.00
24639;BMP180;1641;51.306;12.384;2022-08-19T13:25:14;99821.00;;;24.70
24639;BMP180;1641;51.306;12.384;2022-08-19T13:27:41;99818.00;;;25.00
24639;BMP180;1641;51.306;12.384;2022-08-19T13:30:09;99832.00;;;25.10
24639;BMP180;1641;51.306;12.384;2022-08-19T13:32:53;99837.00;;;24.80
24639;BMP180;1641;51.306;12.384;2022-08-19T13:35:43;99847.00;;;24.90
24639;BMP180;1641;51.306;12.384;2022-08-19T13:38:10;99846.00;;;24.70
24639;BMP180;1641;51.306;12.384;2022-08-19T13:40:36;99836.00;;;24.90
24639;BMP180;1641;51.306;12.384;2022-08-19T13:43:03;99842.00;;;24.90
24639;BMP180;1641;51.306;12.384;2022-08-19T13:45:30;99837.00;;;25.20
24639;BMP180;1641;51.306;12.384;2022-08-19T13:47:59;99846.00;;;25.00
24639;BMP180;1641;51.306;12.384;2022-08-19T13:50:27;99853.00;;;24.60
24639;BMP180;1641;51.306;12.384;2022-08-19T13:52:53;99860.00;;;24.10
24639;BMP180;1641;51.306;12.384;2022-08-19T13:55:19;99867.00;;;24.30
24639;BMP180;1641;51.306;12.384;2022-08-19T13:57:45;99853.00;;;24.90
24639;BMP180;1641;51.306;12.384;2022-08-19T14:00:14;99850.00;;;25.00
24639;BMP180;1641;51.306;12.384;2022-08-19T14:02:40;99838.00;;;24.60
24639;BMP180;1641;51.306;12.384;2022-08-19T14:05:07;99838.00;;;24.30
24639;BMP180;1641;51.306;12.384;2022-08-19T14:07:36;99839.00;;;24.30
24639;BMP180;1641;51.306;12.384;2022-08-19T14:10:05;99843.00;;;24.70
24639;BMP180;1641;51.306;12.384;2022-08-19T14:12:31;99836.00;;;24.90
24639;BMP180;1641;51.306;12.384;2022-08-19T14:14:57;99829.00;;;24.70
24639;BMP180;1641;51.306;12.384;2022-08-19T14:17:22;99829.00;;;25.10
24639;BMP180;1641;51.306;12.384;2022-08-19T14:19:47;99824.00;;;24.70
24639;BMP180;1641;51.306;12.384;2022-08-19T14:22:13;99831.00;;;25.10